CPX765 Details

Departure: Indira Gandhi International Airport (VIDP)
Arrival: Chek Lap Kok International (VHHH) at N/A
Route: ALI R460 LKN A201 AAT A201B ANSOS A201 LSO A599 GULOT W146 XSJ W148 LXI A599 POU R473 SIERA
Notes:


Current Weather Information
VIDP 251030Z 08010G20KT 2500 BR SCT030 FEW035CB BKN080 29/24 Q1003 NOSIG
VHHH 251030Z 21011KT 9999 -RA FEW022 SCT040 29/23 Q1000 NOSIG